Arlington, WA

11:34 PM PST on December 25, 2014 (GMT -0800)
Snohomish County | Change Station
CLOSE
Current Station
Airport
Location: Everett,
Elevation: 604 ft
Nearby Weather Stations
Active Advisory: Winter Storm Watch

Elev 604 ft 47.91 °N, 122.28 °W | Updated 41 minutes ago

Overcast
Overcast
39 °F
Feels Like 39 °F
N
0
Wind Variable Wind from North

Today
High -- | Low -- °F
--% Chance of Precip.
Yesterday
High -- | Low -- °F
Precip. -- in
7:57 AM 4:18 PM
Waxing Crescent, 23% visible
Pressure 30.30 in
Visibility 9.0 miles
Clouds Overcast 500 ft
Dew Point 37 °F
Humidity 93%
Rainfall 0.40 in
Snow Depth Not available.
UV 0 out of 12
Pollen .50 out of 12
Air Quality Not available.
Flu Activity Not available.
METAR KPAE 260653Z AUTO 00000KT 9SM OVC005 04/03 A3029 RMK AO2 CIG 004V009 SLP261 T00390028

More Conditions Fewer Conditions

Pressure 30.30 in
Visibility 9.0 miles
Clouds Overcast 500 ft
Dew Point 37 °F
Humidity 93%
Rainfall 0.40 in
Snow Depth Not available.
UV 0 out of 12
Pollen .50 out of 12
Air Quality Not available.
Flu Activity Not available.
METAR KPAE 260653Z AUTO 00000KT 9SM OVC005 04/03 A3029 RMK AO2 CIG 004V009 SLP261 T00390028

More Conditions Fewer Conditions

10-Day Weather Forecast

Almanac

Astronomy

Dec. 25, 2014 Rise Set
Actual Time
Civil Twilight
Nautical Twilight
Astronomical Twilight
Moon
Length of Visible Light
Length of Day
Tomorrow will be .
, % of the Moon is Illuminated

Today's Extremes

State Highs State Lows

Community

WunderPhotos

Upload Photos

1,780,571 photos uploaded!

WunderBlogs® & News

Nearby

Air Quality

  Air Quality AQ Index Pollutant
Not available.

Snow Depth

Station Depth Elevation

Earthquake Activity

City Distance Mag. Time & Date
Minimum magnitude displayed is 2.5.

Coastal Water Temperatures

Place Temperature

Nearby Weather Stations